Airfield :
LOGIN :

Register | Disclaimer

   EN    FR    IT 

 










Legend :    VFR   Marginal VFR   IFR   Intensive IFR   Very Intensive IFR
Visi :
Ceiling :
>= 8 km
>= 3000ft
5 to 8 km
1000 to 3000 ft
1500m to 5 km
500 to 1000 ft
800 to 1500m
200 to 500 ft
< 800m
< 200 ft
Symbols :   Thunderstorms  Fog  Heavy snow  Heavy precipitations  Wind > 20 kt
SIGMETs :     Misc.  Thunderstorms  Icing  Turbulence  Mountain Waves  Volcanic Ashes







- Airport Elevation : 63 ft
- IATA code : BZM


EHWO - Woensdrecht Airbase

CURRENT METAR :
  • 261155Z AUTO 24008KT 190V300 9999 OVC320 22/13 Q1009 BLU 25005KT 9999 SCT030

EXPIRED METARs :
  • 261125Z AUTO 22008KT 190V280 9999 FEW031 OVC320 21/13 Q1010 BLU 25005KT 9999 SCT030
  • 261102Z AUTO 25009KT 190V300 9999 FEW030 BKN340 22/14 Q1010 BLU 25005KT 9999 SCT030
  • 261055Z AUTO 24006KT 160V290 9999 FEW032 OVC360 22/14 Q1010 BLU 28005KT 9999 SCT024
  • 261025Z AUTO 23008KT 180V270 9999 FEW030 OVC390 21/13 Q1010 BLU 28005KT 9999 SCT024
  • 260955Z AUTO 27006KT 200V300 9999 FEW027 SCT300 20/13 Q1010 BLU 28005KT 9999 SCT024
  • 260925Z AUTO 27005KT 200V310 9999 SCT021 SCT026 OVC320 19/14 Q1010 WHT 28008KT 9999 BKN020

TAF TAF EHWO
Valid from the 26 at 09:00 until the 26 at 21:00 UTC


260738Z 2609/2621 27007KT 9999 SCT020
BECMG 2610/2613 23007KT
TEMPO 2619/2621 SCT010 BKN015
No reported NOTAMs for that airfield.



MET'MAP, your aeronautical weather chart ! - Copyright ORBIFLY December 2007 - Disclaimer

ORBIFLY MET'MAP TEAM :

Programming & Development : Alexandra Zaïnal
Concept & Development : Baudouin d'Aumeries
Co-Development & Prog : Marc-Olivier Méhu
Technical & hardware support : Manuel Goepfert

Contact : metmap@orbifly.com




SOURCES & CREDITS :

   NOAA